createdAt,value
2018-08-19T00:02:26.491Z,99531.08
2018-08-19T00:05:12.508Z,99543.44
2018-08-19T00:07:47.461Z,99545.09
2018-08-19T00:10:19.373Z,99546.31
2018-08-19T00:12:48.427Z,99549.48
2018-08-19T00:15:19.614Z,99545.04
2018-08-19T00:17:51.998Z,99545.47
2018-08-19T00:20:28.260Z,99549.12
2018-08-19T00:23:04.075Z,99544.64
2018-08-19T00:25:44.681Z,99551.07
2018-08-19T00:28:20.870Z,99546.31
2018-08-19T00:30:59.747Z,99548.99
2018-08-19T00:33:33.787Z,99551.39
2018-08-19T00:36:20.142Z,99556.54
2018-08-19T00:38:55.565Z,99546.17
2018-08-19T00:41:33.115Z,99547.41
2018-08-19T00:44:06.616Z,99541.52
2018-08-19T00:46:41.138Z,99540.74
2018-08-19T00:49:18.437Z,99538.73
2018-08-19T00:52:00.604Z,99536.44
2018-08-19T00:54:39.057Z,99540.89
2018-08-19T00:57:11.705Z,99539.65
2018-08-19T00:59:43.033Z,99538.94
2018-08-19T01:02:16.342Z,99544.86
2018-08-19T01:04:44.980Z,99544.53
2018-08-19T01:07:18.295Z,99548.66
2018-08-19T01:09:47.097Z,99554.80
2018-08-19T01:12:15.913Z,99552.49
2018-08-19T01:14:45.155Z,99552.16
2018-08-19T01:17:13.760Z,99550.58
2018-08-19T01:19:45.084Z,99548.96
2018-08-19T01:22:18.212Z,99546.69
2018-08-19T01:24:51.817Z,99554.02
2018-08-19T01:27:26.035Z,99559.09
2018-08-19T01:30:01.112Z,99558.95
2018-08-19T01:32:38.200Z,99562.40
2018-08-19T01:35:11.250Z,99557.20
2018-08-19T01:37:40.675Z,99563.88
2018-08-19T01:40:16.624Z,99560.84
2018-08-19T01:42:49.477Z,99561.55
2018-08-19T01:45:19.197Z,99562.04
2018-08-19T01:47:48.059Z,99564.08
2018-08-19T01:50:18.036Z,99557.41
2018-08-19T01:52:49.975Z,99564.80
2018-08-19T01:55:19.488Z,99557.90
2018-08-19T01:57:49.549Z,99560.78
2018-08-19T02:00:18.680Z,99567.22
2018-08-19T02:03:01.268Z,99561.28
2018-08-19T02:05:30.074Z,99572.56
2018-08-19T02:08:00.343Z,99572.28
2018-08-19T02:10:31.514Z,99568.17
2018-08-19T02:13:01.840Z,99566.72
2018-08-19T02:15:32.441Z,99562.81
2018-08-19T02:18:02.716Z,99562.18
2018-08-19T02:20:38.099Z,99565.09
2018-08-19T02:23:09.556Z,99563.17
2018-08-19T02:25:42.166Z,99564.25
2018-08-19T02:28:11.246Z,99571.33
2018-08-19T02:30:52.035Z,99568.17
2018-08-19T02:33:21.523Z,99576.45
2018-08-19T02:36:05.847Z,99567.58
2018-08-19T02:38:34.774Z,99566.70
2018-08-19T02:41:03.720Z,99568.78
2018-08-19T02:43:32.686Z,99568.64
2018-08-19T02:46:01.306Z,99567.00
2018-08-19T02:48:42.965Z,99565.00
2018-08-19T02:51:14.009Z,99565.08
2018-08-19T02:53:45.223Z,99561.19
2018-08-19T02:56:14.277Z,99560.84
2018-08-19T02:58:43.623Z,99560.39
2018-08-19T03:01:13.110Z,99553.19
2018-08-19T03:03:41.665Z,99552.34
2018-08-19T03:06:10.497Z,99559.59
2018-08-19T03:08:46.889Z,99556.36
2018-08-19T03:11:18.304Z,99558.19
2018-08-19T03:13:46.868Z,99564.64
2018-08-19T03:16:15.418Z,99561.60
2018-08-19T03:18:43.942Z,99564.52
2018-08-19T03:21:12.513Z,99560.84
2018-08-19T03:23:41.038Z,99556.46
2018-08-19T03:26:09.584Z,99555.90
2018-08-19T03:28:38.126Z,99554.20
2018-08-19T03:31:07.023Z,99548.84
2018-08-19T03:33:35.840Z,99553.73
2018-08-19T03:36:05.336Z,99549.20
2018-08-19T03:38:34.253Z,99543.12
2018-08-19T03:41:02.766Z,99536.59
2018-08-19T03:43:31.330Z,99540.10
2018-08-19T03:46:05.923Z,99543.64
2018-08-19T03:48:34.672Z,99547.52
2018-08-19T03:51:03.568Z,99553.70
2018-08-19T03:53:32.347Z,99558.64
2018-08-19T03:56:01.120Z,99563.96
2018-08-19T03:58:29.664Z,99561.52
2018-08-19T04:00:58.192Z,99557.52
2018-08-19T04:03:27.437Z,99565.34
2018-08-19T04:06:00.262Z,99566.05
2018-08-19T04:08:59.678Z,99570.66
2018-08-19T04:11:28.196Z,99580.19
2018-08-19T04:13:56.735Z,99577.84
2018-08-19T04:16:26.109Z,99571.05
2018-08-19T04:19:08.135Z,99577.84
2018-08-19T04:21:36.673Z,99575.81
2018-08-19T04:24:05.251Z,99572.19
2018-08-19T04:26:33.992Z,99572.06
2018-08-19T04:29:05.377Z,99572.72
2018-08-19T04:31:34.603Z,99569.92
2018-08-19T04:34:03.498Z,99568.47
2018-08-19T04:36:32.347Z,99568.83
2018-08-19T04:39:01.251Z,99573.56
2018-08-19T04:41:29.795Z,99582.31
2018-08-19T04:43:58.380Z,99578.45
2018-08-19T04:46:26.926Z,99578.42
2018-08-19T04:48:55.488Z,99578.64
2018-08-19T04:51:24.309Z,99579.95
2018-08-19T04:53:53.594Z,99576.14
2018-08-19T04:56:22.622Z,99581.23
2018-08-19T04:58:51.202Z,99583.17
2018-08-19T05:01:20.118Z,99576.84
2018-08-19T05:03:48.930Z,99571.05
2018-08-19T05:06:17.454Z,99573.42
2018-08-19T05:08:46.288Z,99569.80
2018-08-19T05:11:15.244Z,99577.20
2018-08-19T05:13:43.817Z,99573.38
2018-08-19T05:16:12.347Z,99568.39
2018-08-19T05:18:44.571Z,99568.66
2018-08-19T05:21:15.322Z,99575.58
2018-08-19T05:23:44.616Z,99577.13
2018-08-19T05:26:13.528Z,99573.25
2018-08-19T05:28:45.327Z,99575.19
2018-08-19T05:31:14.090Z,99579.92
2018-08-19T05:33:43.116Z,99581.47
2018-08-19T05:36:11.645Z,99582.58
2018-08-19T05:38:40.168Z,99586.20
2018-08-19T05:41:11.763Z,99585.48
2018-08-19T05:43:40.672Z,99586.92
2018-08-19T05:46:09.329Z,99585.25
2018-08-19T05:48:37.991Z,99585.09
2018-08-19T05:51:06.554Z,99580.95
2018-08-19T05:53:35.839Z,99575.08
2018-08-19T05:56:04.730Z,99581.89
2018-08-19T05:58:33.266Z,99581.27
2018-08-19T06:01:01.879Z,99579.79
2018-08-19T06:03:30.830Z,99575.36
2018-08-19T06:05:59.664Z,99574.87
2018-08-19T06:08:28.204Z,99574.82
2018-08-19T06:10:56.808Z,99573.55
2018-08-19T06:13:28.673Z,99574.83
2018-08-19T06:15:58.304Z,99576.28
2018-08-19T06:18:26.864Z,99575.17
2018-08-19T06:20:55.682Z,99578.53
2018-08-19T06:23:24.199Z,99581.77
2018-08-19T06:25:53.598Z,99582.39
2018-08-19T06:28:22.135Z,99587.95
2018-08-19T06:30:50.934Z,99586.27
2018-08-19T06:33:19.498Z,99588.71
2018-08-19T06:35:48.046Z,99583.19
2018-08-19T06:38:16.564Z,99585.67
2018-08-19T06:40:45.405Z,99583.66
2018-08-19T06:43:14.218Z,99581.48
2018-08-19T06:45:42.737Z,99578.94
2018-08-19T06:48:11.769Z,99579.77
2018-08-19T06:50:40.428Z,99577.66
2018-08-19T06:53:14.416Z,99575.08
2018-08-19T06:55:43.931Z,99579.88
2018-08-19T06:58:13.068Z,99578.59
2018-08-19T07:00:41.921Z,99580.99
2018-08-19T07:03:10.783Z,99578.26
2018-08-19T07:05:43.812Z,99576.27
2018-08-19T07:08:12.973Z,99574.92
2018-08-19T07:10:43.777Z,99568.33
2018-08-19T07:13:22.208Z,99577.72
2018-08-19T07:16:01.176Z,99575.43
2018-08-19T07:18:29.930Z,99585.50
2018-08-19T07:20:58.445Z,99581.03
2018-08-19T07:23:28.207Z,99578.20
2018-08-19T07:25:58.592Z,99581.14
2018-08-19T07:28:31.096Z,99582.37
2018-08-19T07:31:05.157Z,99587.05
2018-08-19T07:33:35.520Z,99580.80
2018-08-19T07:36:15.005Z,99576.58
2018-08-19T07:38:45.966Z,99579.86
2018-08-19T07:41:24.583Z,99578.03
2018-08-19T07:44:02.045Z,99577.10
2018-08-19T07:49:46.696Z,99575.53
2018-08-19T07:52:20.189Z,99575.80
2018-08-19T07:57:34.863Z,99580.19
2018-08-19T08:00:16.118Z,99577.97
2018-08-19T08:02:46.163Z,99580.09
2018-08-19T08:05:14.772Z,99580.48
2018-08-19T08:07:47.949Z,99570.06
2018-08-19T08:10:18.122Z,99570.00
2018-08-19T08:13:17.478Z,99567.05
2018-08-19T08:15:55.998Z,99571.61
2018-08-19T08:18:31.867Z,99572.52
2018-08-19T08:21:09.097Z,99573.79
2018-08-19T08:23:42.348Z,99571.95
2018-08-19T08:26:16.335Z,99575.70
2018-08-19T08:28:58.819Z,99573.00
2018-08-19T08:31:28.261Z,99572.38
2018-08-19T08:34:00.636Z,99568.31
2018-08-19T08:36:30.618Z,99571.61
2018-08-19T08:39:03.914Z,99564.59
2018-08-19T08:41:42.672Z,99562.84
2018-08-19T08:44:12.262Z,99559.19
2018-08-19T08:46:40.857Z,99562.05
2018-08-19T08:49:09.895Z,99564.26
2018-08-19T08:51:38.757Z,99563.42
2018-08-19T08:54:07.408Z,99561.70
2018-08-19T08:56:35.968Z,99559.83
2018-08-19T08:59:04.859Z,99561.08
2018-08-19T09:01:33.998Z,99555.78
2018-08-19T09:04:02.604Z,99553.89
2018-08-19T09:06:31.195Z,99556.05
2018-08-19T09:08:59.760Z,99551.28
2018-08-19T09:11:28.354Z,99546.19
2018-08-19T09:13:57.379Z,99548.20
2018-08-19T09:16:26.389Z,99545.88
2018-08-19T09:18:55.521Z,99542.52
2018-08-19T09:21:24.142Z,99544.75
2018-08-19T09:23:52.703Z,99535.92
2018-08-19T09:26:21.969Z,99542.73
2018-08-19T09:28:50.530Z,99536.66
2018-08-19T09:31:19.091Z,99534.56
2018-08-19T09:33:47.624Z,99536.82
2018-08-19T09:36:16.187Z,99543.75
2018-08-19T09:38:44.759Z,99532.78
2018-08-19T09:41:13.636Z,99528.90
2018-08-19T09:43:42.172Z,99525.52
2018-08-19T09:46:10.743Z,99524.06
2018-08-19T09:48:39.465Z,99526.65
2018-08-19T09:51:13.003Z,99521.30
2018-08-19T09:53:42.286Z,99523.82
2018-08-19T09:56:11.799Z,99524.83
2018-08-19T09:58:41.885Z,99525.23
2018-08-19T10:01:19.431Z,99517.44
2018-08-19T10:03:48.000Z,99518.80
2018-08-19T10:06:16.531Z,99497.85
2018-08-19T10:08:45.495Z,99511.92
2018-08-19T10:11:14.074Z,99510.88
2018-08-19T10:13:46.112Z,99505.15
2018-08-19T10:16:14.597Z,99495.00
2018-08-19T10:18:43.176Z,99498.98
2018-08-19T10:21:18.488Z,99507.36
2018-08-19T10:23:47.350Z,99488.22
2018-08-19T10:26:15.872Z,99490.00
2018-08-19T10:28:44.428Z,99495.27
2018-08-19T10:31:18.401Z,99491.42
2018-08-19T10:33:47.645Z,99494.11
2018-08-19T10:36:16.192Z,99490.26
2018-08-19T10:38:45.719Z,99477.59
2018-08-19T10:41:14.314Z,99488.00
2018-08-19T10:43:42.928Z,99486.02
2018-08-19T10:46:11.503Z,99482.97
2018-08-19T10:48:41.364Z,99481.97
2018-08-19T10:51:11.821Z,99478.62
2018-08-19T10:53:40.757Z,99476.98
2018-08-19T10:56:09.321Z,99479.80
2018-08-19T10:58:40.412Z,99469.38
2018-08-19T11:01:09.129Z,99476.84
2018-08-19T11:03:38.089Z,99460.76
2018-08-19T11:06:07.186Z,99461.14
2018-08-19T11:08:36.260Z,99462.50
2018-08-19T11:11:05.036Z,99453.82
2018-08-19T11:13:34.783Z,99457.61
2018-08-19T11:16:03.400Z,99444.33
2018-08-19T11:18:39.530Z,99445.22
2018-08-19T11:21:11.132Z,99437.44
2018-08-19T11:23:42.987Z,99439.52
2018-08-19T11:26:12.490Z,99444.00
2018-08-19T11:28:50.710Z,99442.30
2018-08-19T11:31:26.421Z,99434.05
2018-08-19T11:34:02.065Z,99432.55
2018-08-19T11:36:36.755Z,99429.32
2018-08-19T11:39:11.733Z,99430.17
2018-08-19T11:41:40.340Z,99423.49
2018-08-19T11:44:13.964Z,99424.03
2018-08-19T11:46:42.503Z,99413.48
2018-08-19T11:49:12.334Z,99408.52
2018-08-19T11:51:53.764Z,99413.55
2018-08-19T11:54:23.189Z,99412.52
2018-08-19T11:56:58.082Z,99414.32
2018-08-19T11:59:31.996Z,99410.66
2018-08-19T12:02:00.590Z,99402.09
2018-08-19T12:04:29.381Z,99402.24
2018-08-19T12:06:58.036Z,99394.55
2018-08-19T12:09:26.626Z,99393.61
2018-08-19T12:11:55.222Z,99393.70
2018-08-19T12:14:24.208Z,99381.99
2018-08-19T12:16:54.791Z,99379.30
2018-08-19T12:19:25.746Z,99385.42
2018-08-19T12:21:56.552Z,99372.58
2018-08-19T12:24:38.317Z,99366.09
2018-08-19T12:27:08.347Z,99366.49
2018-08-19T12:29:37.973Z,99361.14
2018-08-19T12:32:16.995Z,99355.86
2018-08-19T12:34:48.156Z,99344.57
2018-08-19T12:37:17.868Z,99357.66
2018-08-19T12:39:46.466Z,99346.36
2018-08-19T12:42:15.105Z,99351.36
2018-08-19T12:44:44.569Z,99349.74
2018-08-19T12:47:17.592Z,99334.84
2018-08-19T12:49:49.136Z,99340.40
2018-08-19T12:52:20.572Z,99334.02
2018-08-19T12:54:58.921Z,99333.30
2018-08-19T12:57:28.181Z,99326.86
2018-08-19T13:00:07.575Z,99318.41
2018-08-19T13:02:43.112Z,99328.23
2018-08-19T13:05:12.575Z,99320.89
2018-08-19T13:07:41.118Z,99315.75
2018-08-19T13:10:09.804Z,99315.13
2018-08-19T13:12:54.116Z,99305.58
2018-08-19T13:15:24.325Z,99308.05
2018-08-19T13:17:53.127Z,99307.69
2018-08-19T13:20:21.723Z,99307.94
2018-08-19T13:22:56.046Z,99302.32
2018-08-19T13:25:25.626Z,99308.85
2018-08-19T13:27:54.178Z,99297.62
2018-08-19T13:30:23.081Z,99293.37
2018-08-19T13:32:52.351Z,99286.24
2018-08-19T13:35:34.387Z,99286.88
2018-08-19T13:38:03.541Z,99276.92
2018-08-19T13:40:32.098Z,99277.13
2018-08-19T13:43:01.202Z,99265.11
2018-08-19T13:45:30.604Z,99262.09
2018-08-19T13:47:59.526Z,99263.23
2018-08-19T13:50:28.156Z,99264.46
2018-08-19T13:52:57.060Z,99259.80
2018-08-19T13:55:25.682Z,99261.37
2018-08-19T13:57:55.858Z,99258.39
2018-08-19T14:00:28.550Z,99257.42
2018-08-19T14:02:57.066Z,99244.86
2018-08-19T14:05:25.894Z,99246.47
2018-08-19T14:07:54.412Z,99250.24
2018-08-19T14:10:23.338Z,99239.17
2018-08-19T14:12:51.872Z,99250.99
2018-08-19T14:15:20.471Z,99253.24
2018-08-19T14:17:49.292Z,99247.59
2018-08-19T14:20:18.371Z,99244.06
2018-08-19T14:22:46.903Z,99242.58
2018-08-19T14:25:16.772Z,99233.23
2018-08-19T14:28:06.120Z,99231.39
2018-08-19T14:39:49.035Z,99227.24
2018-08-19T14:42:40.857Z,99223.36
2018-08-19T14:45:22.288Z,99211.40
2018-08-19T14:47:59.247Z,99212.93
2018-08-19T14:50:35.427Z,99212.36
2018-08-19T14:53:20.403Z,99212.61
2018-08-19T14:56:10.795Z,99201.30
2018-08-19T14:58:59.535Z,99200.22
2018-08-19T15:01:37.244Z,99195.67
2018-08-19T15:04:23.183Z,99200.42
2018-08-19T15:09:49.452Z,99199.21
2018-08-19T15:12:29.851Z,99193.09
2018-08-19T15:15:15.083Z,99195.89
2018-08-19T15:20:47.243Z,99193.47
2018-08-19T15:23:35.803Z,99198.02
2018-08-19T15:26:09.985Z,99190.91
2018-08-19T15:28:52.008Z,99183.27
2018-08-19T15:31:34.122Z,99178.47
2018-08-19T15:34:09.485Z,99187.84
2018-08-19T15:36:39.767Z,99182.27
2018-08-19T15:39:09.260Z,99185.92
2018-08-19T15:41:41.930Z,99190.81
2018-08-19T15:44:14.173Z,99186.34
2018-08-19T15:46:43.035Z,99196.21
2018-08-19T15:49:11.624Z,99179.61
2018-08-19T15:51:40.796Z,99189.94
2018-08-19T15:54:10.377Z,99183.67
2018-08-19T15:56:38.963Z,99175.59
2018-08-19T15:59:09.939Z,99173.72
2018-08-19T16:01:38.937Z,99176.58
2018-08-19T16:04:15.937Z,99178.67
2018-08-19T16:06:46.042Z,99173.83
2018-08-19T16:09:15.890Z,99172.03
2018-08-19T16:11:45.681Z,99168.45
2018-08-19T16:14:33.153Z,99166.12
2018-08-19T16:17:03.097Z,99167.56
2018-08-19T16:19:31.659Z,99160.09
2018-08-19T16:22:01.740Z,99166.81
2018-08-19T16:24:34.292Z,99162.68
2018-08-19T16:27:07.776Z,99156.75
2018-08-19T16:29:40.370Z,99154.59
2018-08-19T16:32:14.595Z,99152.94
2018-08-19T16:34:47.598Z,99139.60
2018-08-19T16:37:19.034Z,99143.94
2018-08-19T16:39:57.071Z,99144.32
2018-08-19T16:42:26.660Z,99144.18
2018-08-19T16:44:55.636Z,99139.77
2018-08-19T16:47:24.415Z,99141.20
2018-08-19T16:49:53.210Z,99138.56
2018-08-19T16:52:21.838Z,99135.34
2018-08-19T16:54:51.371Z,99130.75
2018-08-19T16:57:23.375Z,99129.58
2018-08-19T16:59:55.412Z,99132.34
2018-08-19T17:02:27.397Z,99132.97
2018-08-19T17:05:01.862Z,99133.08
2018-08-19T17:07:38.649Z,99127.95
2018-08-19T17:10:07.217Z,99128.56
2018-08-19T17:12:35.761Z,99129.52
2018-08-19T17:15:04.331Z,99128.45
2018-08-19T17:17:32.869Z,99130.84
2018-08-19T17:20:01.393Z,99128.25
2018-08-19T17:22:29.959Z,99137.89
2018-08-19T17:24:59.364Z,99131.67
2018-08-19T17:27:27.927Z,99126.62
2018-08-19T17:29:56.525Z,99127.13
2018-08-19T17:32:25.094Z,99130.91
2018-08-19T17:34:54.030Z,99125.76
2018-08-19T17:37:24.512Z,99127.98
2018-08-19T17:39:53.162Z,99126.25
2018-08-19T17:42:21.706Z,99130.66
2018-08-19T17:44:50.995Z,99127.55
2018-08-19T17:47:19.791Z,99134.90
2018-08-19T17:49:48.690Z,99133.89
2018-08-19T17:52:17.607Z,99128.49
2018-08-19T17:54:46.408Z,99133.98
2018-08-19T17:57:15.833Z,99129.94
2018-08-19T17:59:44.409Z,99135.27
2018-08-19T18:02:12.908Z,99131.98
2018-08-19T18:04:47.115Z,99134.33
2018-08-19T18:07:27.886Z,99134.41
2018-08-19T18:09:57.866Z,99137.02
2018-08-19T18:12:26.480Z,99136.45
2018-08-19T18:14:55.330Z,99135.66
2018-08-19T18:17:23.883Z,99132.47
2018-08-19T18:19:53.242Z,99134.41
2018-08-19T18:22:22.291Z,99131.94
2018-08-19T18:25:06.455Z,99142.19
2018-08-19T18:27:35.161Z,99137.43
2018-08-19T18:30:03.942Z,99132.06
2018-08-19T18:32:32.551Z,99132.67
2018-08-19T18:35:01.265Z,99137.83
2018-08-19T18:37:29.830Z,99134.31
2018-08-19T18:39:59.577Z,99135.38
2018-08-19T18:42:37.929Z,99132.75
2018-08-19T18:45:11.761Z,99134.86
2018-08-19T18:47:47.411Z,99139.05
2018-08-19T18:50:16.424Z,99143.04
2018-08-19T18:52:44.982Z,99141.88
2018-08-19T18:55:13.494Z,99139.66
2018-08-19T18:57:47.251Z,99140.16
2018-08-19T19:00:15.797Z,99140.67
2018-08-19T19:02:48.906Z,99149.25
2018-08-19T19:05:29.190Z,99153.53
2018-08-19T19:08:00.715Z,99144.63
2018-08-19T19:10:32.317Z,99150.50
2018-08-19T19:13:00.956Z,99147.51
2018-08-19T19:15:30.032Z,99144.62
2018-08-19T19:17:58.636Z,99142.08
2018-08-19T19:20:27.369Z,99138.25
2018-08-19T19:23:01.890Z,99141.56
2018-08-19T19:25:36.065Z,99143.36
2018-08-19T19:28:04.708Z,99142.73
2018-08-19T19:30:34.170Z,99142.55
2018-08-19T19:33:10.703Z,99140.91
2018-08-19T19:35:39.217Z,99142.48
2018-08-19T19:38:08.420Z,99140.73
2018-08-19T19:40:39.000Z,99142.06
2018-08-19T19:43:07.857Z,99140.45
2018-08-19T19:45:42.700Z,99137.39
2018-08-19T19:48:11.823Z,99139.37
2018-08-19T19:50:41.272Z,99142.38
2018-08-19T19:53:10.381Z,99142.17
2018-08-19T19:55:38.896Z,99149.38
2018-08-19T19:58:07.562Z,99145.51
2018-08-19T20:00:50.994Z,99149.81
2018-08-19T20:03:19.908Z,99151.36
2018-08-19T20:05:48.455Z,99153.33
2018-08-19T20:08:17.397Z,99159.28
2018-08-19T20:10:46.637Z,99161.78
2018-08-19T20:13:15.317Z,99169.75
2018-08-19T20:15:43.868Z,99172.34
2018-08-19T20:18:12.418Z,99172.33
2018-08-19T20:20:40.944Z,99169.89
2018-08-19T20:23:13.888Z,99166.19
2018-08-19T20:25:42.413Z,99171.13
2018-08-19T20:28:11.052Z,99163.19
2018-08-19T20:30:40.255Z,99168.72
2018-08-19T20:33:16.945Z,99169.38
2018-08-19T20:35:45.601Z,99173.83
2018-08-19T20:38:14.197Z,99173.31
2018-08-19T20:40:42.774Z,99178.19
2018-08-19T20:43:17.926Z,99177.24
2018-08-19T20:45:46.867Z,99179.88
2018-08-19T20:48:17.960Z,99175.89
2018-08-19T20:50:47.144Z,99185.43
2018-08-19T20:53:17.193Z,99186.56
2018-08-19T20:55:45.844Z,99188.17
2018-08-19T20:58:14.415Z,99176.17
2018-08-19T21:00:43.008Z,99196.59
2018-08-19T21:03:11.772Z,99199.23
2018-08-19T21:05:40.701Z,99196.72
2018-08-19T21:08:13.391Z,99200.36
2018-08-19T21:10:43.806Z,99209.16
2018-08-19T21:13:13.536Z,99204.02
2018-08-19T21:15:45.241Z,99206.89
2018-08-19T21:18:14.081Z,99209.25
2018-08-19T21:20:43.174Z,99211.25
2018-08-19T21:23:12.041Z,99205.18
2018-08-19T21:25:47.846Z,99211.00
2018-08-19T21:28:16.905Z,99208.92
2018-08-19T21:30:45.474Z,99212.40
2018-08-19T21:33:14.071Z,99216.61
2018-08-19T21:35:48.001Z,99222.22
2018-08-19T21:38:16.804Z,99219.34
2018-08-19T21:40:45.354Z,99218.33
2018-08-19T21:43:14.155Z,99229.77
2018-08-19T21:45:42.754Z,99222.31
2018-08-19T21:48:14.460Z,99217.69
2018-08-19T21:50:43.145Z,99227.67
2018-08-19T21:53:16.025Z,99230.84
2018-08-19T21:55:45.893Z,99223.23
2018-08-19T21:58:14.474Z,99229.95
2018-08-19T22:00:53.069Z,99229.67
2018-08-19T22:03:26.920Z,99229.53
2018-08-19T22:05:56.457Z,99226.33
2018-08-19T22:08:25.245Z,99230.55
2018-08-19T22:10:53.820Z,99227.30
2018-08-19T22:13:22.410Z,99229.91
2018-08-19T22:15:51.024Z,99227.81
2018-08-19T22:18:22.080Z,99234.57
2018-08-19T22:21:03.381Z,99232.36
2018-08-19T22:23:37.267Z,99232.17
2018-08-19T22:26:06.329Z,99236.05
2018-08-19T22:28:34.928Z,99230.86
2018-08-19T22:31:15.110Z,99230.86
2018-08-19T22:33:45.912Z,99223.36
2018-08-19T22:36:14.455Z,99234.55
2018-08-19T22:38:44.022Z,99227.63
2018-08-19T22:41:12.617Z,99228.85
2018-08-19T22:43:41.135Z,99230.69
2018-08-19T22:46:09.743Z,99227.15
2018-08-19T22:48:40.562Z,99235.55
2018-08-19T22:51:10.710Z,99232.34
2018-08-19T22:53:39.278Z,99232.05
2018-08-19T22:56:07.908Z,99227.79
2018-08-19T22:58:36.881Z,99229.16
2018-08-19T23:01:06.586Z,99232.56
2018-08-19T23:03:35.193Z,99231.70
2018-08-19T23:06:03.816Z,99232.02
2018-08-19T23:08:33.762Z,99230.31
2018-08-19T23:11:03.499Z,99230.80
2018-08-19T23:13:43.214Z,99225.28
2018-08-19T23:16:12.641Z,99226.81
2018-08-19T23:18:41.916Z,99227.46
2018-08-19T23:21:11.259Z,99229.85
2018-08-19T23:23:40.848Z,99229.00
2018-08-19T23:26:09.433Z,99233.91
2018-08-19T23:28:37.973Z,99228.16
2018-08-19T23:31:06.565Z,99228.68
2018-08-19T23:33:35.904Z,99232.43
2018-08-19T23:36:04.503Z,99233.94
2018-08-19T23:38:33.048Z,99232.23
2018-08-19T23:41:01.616Z,99227.20
2018-08-19T23:43:30.152Z,99227.84
2018-08-19T23:45:59.070Z,99241.19
2018-08-19T23:48:27.601Z,99240.36
2018-08-19T23:50:56.184Z,99237.14
2018-08-19T23:53:25.333Z,99236.84
2018-08-19T23:55:54.324Z,99235.80
2018-08-19T23:58:22.858Z,99239.34
